sensor_id;sensor_type;location;lat;lon;timestamp;P1;durP1;ratioP1;P2;durP2;ratioP2
71814;SDS011;59659;41.520;23.794;2023-03-23T00:01:05;3.00;;;2.00;;
71814;SDS011;59659;41.520;23.794;2023-03-23T00:02:16;4.85;;;2.55;;
71814;SDS011;59659;41.520;23.794;2023-03-23T00:03:27;5.13;;;2.33;;
71814;SDS011;59659;41.520;23.794;2023-03-23T00:04:38;8.23;;;3.72;;
71814;SDS011;59659;41.520;23.794;2023-03-23T00:05:50;10.53;;;3.87;;
71814;SDS011;59659;41.520;23.794;2023-03-23T00:07:00;6.30;;;2.88;;
71814;SDS011;59659;41.520;23.794;2023-03-23T00:08:11;7.90;;;3.33;;
71814;SDS011;59659;41.520;23.794;2023-03-23T00:09:22;9.93;;;4.30;;
71814;SDS011;59659;41.520;23.794;2023-03-23T00:10:36;5.83;;;3.47;;
71814;SDS011;59659;41.520;23.794;2023-03-23T00:11:47;11.95;;;4.72;;
71814;SDS011;59659;41.520;23.794;2023-03-23T00:12:58;13.17;;;4.17;;
71814;SDS011;59659;41.520;23.794;2023-03-23T00:14:12;9.52;;;3.45;;
71814;SDS011;59659;41.520;23.794;2023-03-23T00:15:23;5.93;;;2.87;;
71814;SDS011;59659;41.520;23.794;2023-03-23T00:16:34;9.55;;;2.97;;
71814;SDS011;59659;41.520;23.794;2023-03-23T00:17:47;4.57;;;2.22;;
71814;SDS011;59659;41.520;23.794;2023-03-23T00:18:59;4.83;;;2.47;;
71814;SDS011;59659;41.520;23.794;2023-03-23T00:20:09;6.32;;;2.95;;
71814;SDS011;59659;41.520;23.794;2023-03-23T00:21:23;5.22;;;2.80;;
71814;SDS011;59659;41.520;23.794;2023-03-23T00:22:43;6.35;;;2.90;;
71814;SDS011;59659;41.520;23.794;2023-03-23T00:23:53;8.40;;;3.83;;
71814;SDS011;59659;41.520;23.794;2023-03-23T00:25:04;7.67;;;4.20;;
71814;SDS011;59659;41.520;23.794;2023-03-23T00:26:15;17.05;;;5.40;;
71814;SDS011;59659;41.520;23.794;2023-03-23T00:27:25;9.77;;;5.20;;
71814;SDS011;59659;41.520;23.794;2023-03-23T00:28:36;7.40;;;3.73;;
71814;SDS011;59659;41.520;23.794;2023-03-23T00:29:46;6.70;;;3.60;;
71814;SDS011;59659;41.520;23.794;2023-03-23T00:32:07;8.20;;;3.77;;
71814;SDS011;59659;41.520;23.794;2023-03-23T00:33:23;13.25;;;4.82;;
71814;SDS011;59659;41.520;23.794;2023-03-23T00:34:33;10.35;;;4.05;;
71814;SDS011;59659;41.520;23.794;2023-03-23T00:35:44;12.43;;;4.60;;
71814;SDS011;59659;41.520;23.794;2023-03-23T00:36:55;10.63;;;3.77;;
71814;SDS011;59659;41.520;23.794;2023-03-23T00:38:08;8.88;;;3.80;;
71814;SDS011;59659;41.520;23.794;2023-03-23T00:39:18;8.90;;;3.17;;
71814;SDS011;59659;41.520;23.794;2023-03-23T00:40:28;8.87;;;2.70;;
71814;SDS011;59659;41.520;23.794;2023-03-23T00:41:39;5.87;;;2.43;;
71814;SDS011;59659;41.520;23.794;2023-03-23T00:42:49;4.70;;;2.97;;
71814;SDS011;59659;41.520;23.794;2023-03-23T00:43:59;6.70;;;3.30;;
71814;SDS011;59659;41.520;23.794;2023-03-23T00:45:10;8.80;;;3.07;;
71814;SDS011;59659;41.520;23.794;2023-03-23T00:46:22;3.88;;;1.98;;
71814;SDS011;59659;41.520;23.794;2023-03-23T00:47:32;3.65;;;2.25;;
71814;SDS011;59659;41.520;23.794;2023-03-23T00:48:46;5.93;;;2.70;;
71814;SDS011;59659;41.520;23.794;2023-03-23T00:49:56;5.77;;;2.80;;
71814;SDS011;59659;41.520;23.794;2023-03-23T00:51:07;4.50;;;2.40;;
71814;SDS011;59659;41.520;23.794;2023-03-23T00:52:21;6.93;;;3.63;;
71814;SDS011;59659;41.520;23.794;2023-03-23T00:53:32;8.00;;;3.20;;
71814;SDS011;59659;41.520;23.794;2023-03-23T00:54:42;5.93;;;2.60;;
71814;SDS011;59659;41.520;23.794;2023-03-23T00:55:53;8.83;;;2.80;;
71814;SDS011;59659;41.520;23.794;2023-03-23T00:57:04;8.93;;;3.33;;
71814;SDS011;59659;41.520;23.794;2023-03-23T00:58:14;7.43;;;3.08;;
71814;SDS011;59659;41.520;23.794;2023-03-23T00:59:25;6.40;;;2.80;;
71814;SDS011;59659;41.520;23.794;2023-03-23T01:00:36;9.40;;;3.43;;
71814;SDS011;59659;41.520;23.794;2023-03-23T01:01:46;6.50;;;3.40;;
71814;SDS011;59659;41.520;23.794;2023-03-23T01:02:57;6.47;;;3.50;;
71814;SDS011;59659;41.520;23.794;2023-03-23T01:04:07;8.40;;;4.27;;
71814;SDS011;59659;41.520;23.794;2023-03-23T01:05:18;7.18;;;3.97;;
71814;SDS011;59659;41.520;23.794;2023-03-23T01:06:33;9.37;;;4.57;;
71814;SDS011;59659;41.520;23.794;2023-03-23T01:07:45;9.13;;;4.63;;
71814;SDS011;59659;41.520;23.794;2023-03-23T01:08:56;9.00;;;4.23;;
71814;SDS011;59659;41.520;23.794;2023-03-23T01:10:07;5.90;;;3.80;;
71814;SDS011;59659;41.520;23.794;2023-03-23T01:11:17;7.47;;;3.03;;
71814;SDS011;59659;41.520;23.794;2023-03-23T01:12:28;7.70;;;4.17;;
71814;SDS011;59659;41.520;23.794;2023-03-23T01:13:38;5.70;;;3.03;;
71814;SDS011;59659;41.520;23.794;2023-03-23T01:14:50;4.15;;;2.17;;
71814;SDS011;59659;41.520;23.794;2023-03-23T01:16:00;5.00;;;2.73;;
71814;SDS011;59659;41.520;23.794;2023-03-23T01:17:10;4.67;;;2.10;;
71814;SDS011;59659;41.520;23.794;2023-03-23T01:18:21;8.10;;;3.03;;
71814;SDS011;59659;41.520;23.794;2023-03-23T01:19:31;5.13;;;2.67;;
71814;SDS011;59659;41.520;23.794;2023-03-23T01:20:41;4.57;;;2.43;;
71814;SDS011;59659;41.520;23.794;2023-03-23T01:21:52;3.50;;;2.13;;
71814;SDS011;59659;41.520;23.794;2023-03-23T01:23:03;3.23;;;2.00;;
71814;SDS011;59659;41.520;23.794;2023-03-23T01:24:14;2.92;;;2.10;;
71814;SDS011;59659;41.520;23.794;2023-03-23T01:25:25;3.67;;;2.23;;
71814;SDS011;59659;41.520;23.794;2023-03-23T01:26:36;2.80;;;2.00;;
71814;SDS011;59659;41.520;23.794;2023-03-23T01:27:47;6.25;;;3.45;;
71814;SDS011;59659;41.520;23.794;2023-03-23T01:28:57;4.47;;;2.70;;
71814;SDS011;59659;41.520;23.794;2023-03-23T01:30:08;7.70;;;3.20;;
71814;SDS011;59659;41.520;23.794;2023-03-23T01:31:21;6.68;;;3.35;;
71814;SDS011;59659;41.520;23.794;2023-03-23T01:32:32;7.90;;;3.25;;
71814;SDS011;59659;41.520;23.794;2023-03-23T01:33:42;6.60;;;2.93;;
71814;SDS011;59659;41.520;23.794;2023-03-23T01:34:53;3.87;;;3.07;;
71814;SDS011;59659;41.520;23.794;2023-03-23T01:36:04;5.37;;;2.70;;
71814;SDS011;59659;41.520;23.794;2023-03-23T01:37:15;4.10;;;2.55;;
71814;SDS011;59659;41.520;23.794;2023-03-23T01:38:26;6.03;;;3.00;;
71814;SDS011;59659;41.520;23.794;2023-03-23T01:39:36;7.87;;;2.70;;
71814;SDS011;59659;41.520;23.794;2023-03-23T01:40:47;5.73;;;2.60;;
71814;SDS011;59659;41.520;23.794;2023-03-23T01:41:57;3.17;;;2.57;;
71814;SDS011;59659;41.520;23.794;2023-03-23T01:43:13;4.50;;;2.50;;
71814;SDS011;59659;41.520;23.794;2023-03-23T01:45:34;5.63;;;2.80;;
71814;SDS011;59659;41.520;23.794;2023-03-23T01:46:45;3.35;;;2.38;;
71814;SDS011;59659;41.520;23.794;2023-03-23T01:48:03;10.27;;;2.30;;
71814;SDS011;59659;41.520;23.794;2023-03-23T01:49:16;4.40;;;2.97;;
71814;SDS011;59659;41.520;23.794;2023-03-23T01:50:28;8.95;;;2.80;;
71814;SDS011;59659;41.520;23.794;2023-03-23T01:51:40;5.82;;;2.70;;
71814;SDS011;59659;41.520;23.794;2023-03-23T01:52:52;15.10;;;3.75;;
71814;SDS011;59659;41.520;23.794;2023-03-23T01:54:04;5.80;;;2.83;;
71814;SDS011;59659;41.520;23.794;2023-03-23T01:55:16;6.03;;;3.20;;
71814;SDS011;59659;41.520;23.794;2023-03-23T01:56:27;6.30;;;2.77;;
71814;SDS011;59659;41.520;23.794;2023-03-23T01:57:39;6.60;;;2.83;;
71814;SDS011;59659;41.520;23.794;2023-03-23T01:58:50;6.57;;;3.17;;
71814;SDS011;59659;41.520;23.794;2023-03-23T02:00:02;8.40;;;3.63;;
71814;SDS011;59659;41.520;23.794;2023-03-23T02:01:24;9.15;;;3.97;;
71814;SDS011;59659;41.520;23.794;2023-03-23T02:02:35;7.03;;;3.77;;
71814;SDS011;59659;41.520;23.794;2023-03-23T02:03:45;7.07;;;3.13;;
71814;SDS011;59659;41.520;23.794;2023-03-23T02:04:59;4.65;;;2.08;;
71814;SDS011;59659;41.520;23.794;2023-03-23T02:06:12;8.52;;;3.28;;
71814;SDS011;59659;41.520;23.794;2023-03-23T02:07:22;7.80;;;2.97;;
71814;SDS011;59659;41.520;23.794;2023-03-23T02:08:33;8.23;;;3.97;;
71814;SDS011;59659;41.520;23.794;2023-03-23T02:09:44;10.83;;;3.77;;
71814;SDS011;59659;41.520;23.794;2023-03-23T02:10:54;7.97;;;3.10;;
71814;SDS011;59659;41.520;23.794;2023-03-23T02:12:05;9.37;;;3.23;;
71814;SDS011;59659;41.520;23.794;2023-03-23T02:13:15;4.53;;;2.80;;
71814;SDS011;59659;41.520;23.794;2023-03-23T02:14:27;5.80;;;2.60;;
71814;SDS011;59659;41.520;23.794;2023-03-23T02:18:41;3.58;;;2.38;;
71814;SDS011;59659;41.520;23.794;2023-03-23T02:32:10;14.80;;;3.95;;
71814;SDS011;59659;41.520;23.794;2023-03-23T02:34:39;9.20;;;3.60;;
71814;SDS011;59659;41.520;23.794;2023-03-23T02:37:03;4.53;;;2.50;;
71814;SDS011;59659;41.520;23.794;2023-03-23T02:38:18;7.85;;;3.10;;
71814;SDS011;59659;41.520;23.794;2023-03-23T02:39:32;3.78;;;2.13;;
71814;SDS011;59659;41.520;23.794;2023-03-23T02:40:47;3.85;;;2.40;;
71814;SDS011;59659;41.520;23.794;2023-03-23T02:42:02;3.33;;;1.92;;
71814;SDS011;59659;41.520;23.794;2023-03-23T02:43:15;3.72;;;2.22;;
71814;SDS011;59659;41.520;23.794;2023-03-23T02:44:27;3.72;;;1.98;;
71814;SDS011;59659;41.520;23.794;2023-03-23T02:45:40;4.20;;;2.33;;
71814;SDS011;59659;41.520;23.794;2023-03-23T02:46:51;5.50;;;2.72;;
71814;SDS011;59659;41.520;23.794;2023-03-23T02:48:03;2.92;;;2.20;;
71814;SDS011;59659;41.520;23.794;2023-03-23T02:49:15;4.10;;;2.13;;
71814;SDS011;59659;41.520;23.794;2023-03-23T02:50:26;5.07;;;2.50;;
71814;SDS011;59659;41.520;23.794;2023-03-23T02:51:37;7.60;;;3.45;;
71814;SDS011;59659;41.520;23.794;2023-03-23T02:52:48;4.30;;;2.50;;
71814;SDS011;59659;41.520;23.794;2023-03-23T02:53:59;5.45;;;2.13;;
71814;SDS011;59659;41.520;23.794;2023-03-23T02:55:10;9.02;;;2.10;;
71814;SDS011;59659;41.520;23.794;2023-03-23T02:56:23;4.87;;;2.60;;
71814;SDS011;59659;41.520;23.794;2023-03-23T02:57:35;5.03;;;2.95;;
71814;SDS011;59659;41.520;23.794;2023-03-23T02:58:47;5.78;;;2.83;;
71814;SDS011;59659;41.520;23.794;2023-03-23T02:59:57;3.57;;;2.23;;
71814;SDS011;59659;41.520;23.794;2023-03-23T03:01:16;6.57;;;2.77;;
71814;SDS011;59659;41.520;23.794;2023-03-23T03:02:46;4.30;;;2.35;;
71814;SDS011;59659;41.520;23.794;2023-03-23T03:04:06;4.55;;;2.65;;
71814;SDS011;59659;41.520;23.794;2023-03-23T03:11:48;6.40;;;2.72;;
71814;SDS011;59659;41.520;23.794;2023-03-23T03:14:30;4.50;;;1.90;;
71814;SDS011;59659;41.520;23.794;2023-03-23T03:15:44;4.05;;;2.38;;
71814;SDS011;59659;41.520;23.794;2023-03-23T03:17:07;3.78;;;2.90;;
71814;SDS011;59659;41.520;23.794;2023-03-23T03:18:23;6.05;;;2.90;;
71814;SDS011;59659;41.520;23.794;2023-03-23T03:19:36;2.92;;;2.17;;
71814;SDS011;59659;41.520;23.794;2023-03-23T03:20:49;3.10;;;2.00;;
71814;SDS011;59659;41.520;23.794;2023-03-23T03:22:00;2.80;;;2.03;;
71814;SDS011;59659;41.520;23.794;2023-03-23T03:23:11;4.43;;;2.70;;
71814;SDS011;59659;41.520;23.794;2023-03-23T03:24:23;4.18;;;2.67;;
71814;SDS011;59659;41.520;23.794;2023-03-23T03:25:34;4.43;;;1.77;;
71814;SDS011;59659;41.520;23.794;2023-03-23T03:26:45;4.13;;;2.47;;
71814;SDS011;59659;41.520;23.794;2023-03-23T03:27:57;4.35;;;2.55;;
71814;SDS011;59659;41.520;23.794;2023-03-23T03:29:07;4.93;;;2.60;;
71814;SDS011;59659;41.520;23.794;2023-03-23T03:30:19;4.40;;;3.17;;
71814;SDS011;59659;41.520;23.794;2023-03-23T03:31:35;5.95;;;2.83;;
71814;SDS011;59659;41.520;23.794;2023-03-23T03:32:48;5.18;;;2.60;;
71814;SDS011;59659;41.520;23.794;2023-03-23T03:34:01;4.78;;;2.90;;
71814;SDS011;59659;41.520;23.794;2023-03-23T03:35:11;7.00;;;2.90;;
71814;SDS011;59659;41.520;23.794;2023-03-23T03:36:23;5.60;;;2.93;;
71814;SDS011;59659;41.520;23.794;2023-03-23T03:37:36;5.03;;;3.03;;
71814;SDS011;59659;41.520;23.794;2023-03-23T03:38:48;4.20;;;2.55;;
71814;SDS011;59659;41.520;23.794;2023-03-23T03:39:59;4.85;;;2.47;;
71814;SDS011;59659;41.520;23.794;2023-03-23T03:41:09;5.13;;;3.13;;
71814;SDS011;59659;41.520;23.794;2023-03-23T03:42:20;3.97;;;2.63;;
71814;SDS011;59659;41.520;23.794;2023-03-23T03:43:30;4.53;;;2.20;;
71814;SDS011;59659;41.520;23.794;2023-03-23T03:44:41;4.30;;;2.13;;
71814;SDS011;59659;41.520;23.794;2023-03-23T03:45:51;3.60;;;2.23;;
71814;SDS011;59659;41.520;23.794;2023-03-23T03:47:01;6.57;;;2.70;;
71814;SDS011;59659;41.520;23.794;2023-03-23T03:48:12;7.53;;;3.37;;
71814;SDS011;59659;41.520;23.794;2023-03-23T03:49:22;7.83;;;3.23;;
71814;SDS011;59659;41.520;23.794;2023-03-23T03:50:33;4.27;;;2.63;;
71814;SDS011;59659;41.520;23.794;2023-03-23T03:51:43;4.23;;;2.47;;
71814;SDS011;59659;41.520;23.794;2023-03-23T03:52:54;5.83;;;2.03;;
71814;SDS011;59659;41.520;23.794;2023-03-23T03:54:04;5.27;;;2.80;;
71814;SDS011;59659;41.520;23.794;2023-03-23T03:55:15;7.70;;;4.20;;
71814;SDS011;59659;41.520;23.794;2023-03-23T03:56:27;4.43;;;3.00;;
71814;SDS011;59659;41.520;23.794;2023-03-23T03:57:37;4.70;;;2.87;;
71814;SDS011;59659;41.520;23.794;2023-03-23T03:58:48;4.73;;;2.60;;
71814;SDS011;59659;41.520;23.794;2023-03-23T03:59:59;3.88;;;2.25;;
71814;SDS011;59659;41.520;23.794;2023-03-23T04:01:09;4.07;;;2.07;;
71814;SDS011;59659;41.520;23.794;2023-03-23T04:02:20;4.70;;;3.10;;
71814;SDS011;59659;41.520;23.794;2023-03-23T04:03:31;3.80;;;2.37;;
71814;SDS011;59659;41.520;23.794;2023-03-23T04:04:41;5.23;;;2.50;;
71814;SDS011;59659;41.520;23.794;2023-03-23T04:05:53;3.47;;;2.58;;
71814;SDS011;59659;41.520;23.794;2023-03-23T04:07:05;5.80;;;3.78;;
71814;SDS011;59659;41.520;23.794;2023-03-23T04:08:15;10.37;;;5.10;;
71814;SDS011;59659;41.520;23.794;2023-03-23T04:09:25;8.77;;;4.97;;
71814;SDS011;59659;41.520;23.794;2023-03-23T04:10:37;16.08;;;8.93;;
71814;SDS011;59659;41.520;23.794;2023-03-23T04:11:47;23.93;;;12.13;;
71814;SDS011;59659;41.520;23.794;2023-03-23T04:12:58;25.63;;;13.30;;
71814;SDS011;59659;41.520;23.794;2023-03-23T04:14:08;25.50;;;14.43;;
71814;SDS011;59659;41.520;23.794;2023-03-23T04:15:18;16.03;;;9.10;;
71814;SDS011;59659;41.520;23.794;2023-03-23T04:16:29;18.87;;;11.23;;
71814;SDS011;59659;41.520;23.794;2023-03-23T04:17:39;17.00;;;8.93;;
71814;SDS011;59659;41.520;23.794;2023-03-23T04:18:50;18.73;;;10.13;;
71814;SDS011;59659;41.520;23.794;2023-03-23T04:20:01;14.53;;;8.80;;
71814;SDS011;59659;41.520;23.794;2023-03-23T04:21:17;14.85;;;8.50;;
71814;SDS011;59659;41.520;23.794;2023-03-23T04:22:27;15.73;;;9.63;;
71814;SDS011;59659;41.520;23.794;2023-03-23T04:23:41;16.15;;;8.98;;
71814;SDS011;59659;41.520;23.794;2023-03-23T04:24:51;13.17;;;8.30;;
71814;SDS011;59659;41.520;23.794;2023-03-23T04:26:02;11.47;;;6.97;;
71814;SDS011;59659;41.520;23.794;2023-03-23T04:27:13;10.32;;;5.75;;
71814;SDS011;59659;41.520;23.794;2023-03-23T04:28:24;12.93;;;6.03;;
71814;SDS011;59659;41.520;23.794;2023-03-23T04:29:34;10.48;;;6.35;;
71814;SDS011;59659;41.520;23.794;2023-03-23T04:30:46;12.63;;;6.30;;
71814;SDS011;59659;41.520;23.794;2023-03-23T04:31:58;14.50;;;6.15;;
71814;SDS011;59659;41.520;23.794;2023-03-23T04:33:11;11.77;;;5.93;;
71814;SDS011;59659;41.520;23.794;2023-03-23T04:34:25;20.83;;;9.60;;
71814;SDS011;59659;41.520;23.794;2023-03-23T04:35:35;26.17;;;10.93;;
71814;SDS011;59659;41.520;23.794;2023-03-23T04:36:46;25.77;;;10.90;;
71814;SDS011;59659;41.520;23.794;2023-03-23T04:37:56;16.17;;;7.97;;
71814;SDS011;59659;41.520;23.794;2023-03-23T04:39:07;16.37;;;8.20;;
71814;SDS011;59659;41.520;23.794;2023-03-23T04:40:20;34.03;;;12.07;;
71814;SDS011;59659;41.520;23.794;2023-03-23T04:41:30;260.37;;;78.30;;
71814;SDS011;59659;41.520;23.794;2023-03-23T04:42:41;102.90;;;52.10;;
71814;SDS011;59659;41.520;23.794;2023-03-23T04:43:55;152.48;;;46.40;;
71814;SDS011;59659;41.520;23.794;2023-03-23T04:45:07;50.78;;;19.55;;
71814;SDS011;59659;41.520;23.794;2023-03-23T04:46:18;49.03;;;19.25;;
71814;SDS011;59659;41.520;23.794;2023-03-23T04:47:30;57.50;;;18.83;;
71814;SDS011;59659;41.520;23.794;2023-03-23T04:48:41;70.43;;;25.15;;
71814;SDS011;59659;41.520;23.794;2023-03-23T04:49:52;79.77;;;28.80;;
71814;SDS011;59659;41.520;23.794;2023-03-23T04:51:02;43.20;;;17.47;;
71814;SDS011;59659;41.520;23.794;2023-03-23T04:52:13;28.95;;;11.15;;
71814;SDS011;59659;41.520;23.794;2023-03-23T04:53:24;17.03;;;7.63;;
71814;SDS011;59659;41.520;23.794;2023-03-23T04:54:34;17.40;;;7.93;;
71814;SDS011;59659;41.520;23.794;2023-03-23T04:55:45;11.57;;;7.47;;
71814;SDS011;59659;41.520;23.794;2023-03-23T04:56:57;18.45;;;8.60;;
71814;SDS011;59659;41.520;23.794;2023-03-23T04:58:11;23.20;;;11.93;;
71814;SDS011;59659;41.520;23.794;2023-03-23T04:59:24;21.48;;;11.93;;
71814;SDS011;59659;41.520;23.794;2023-03-23T05:00:37;15.32;;;7.80;;
71814;SDS011;59659;41.520;23.794;2023-03-23T05:01:48;14.57;;;8.13;;
71814;SDS011;59659;41.520;23.794;2023-03-23T05:02:58;14.07;;;8.33;;
71814;SDS011;59659;41.520;23.794;2023-03-23T05:04:08;16.67;;;8.40;;
71814;SDS011;59659;41.520;23.794;2023-03-23T05:05:19;15.20;;;8.40;;
71814;SDS011;59659;41.520;23.794;2023-03-23T05:06:30;19.27;;;9.25;;
71814;SDS011;59659;41.520;23.794;2023-03-23T05:07:41;28.23;;;14.07;;
71814;SDS011;59659;41.520;23.794;2023-03-23T05:08:51;34.40;;;15.37;;
71814;SDS011;59659;41.520;23.794;2023-03-23T05:10:02;36.93;;;15.80;;
71814;SDS011;59659;41.520;23.794;2023-03-23T05:11:12;42.17;;;16.27;;
71814;SDS011;59659;41.520;23.794;2023-03-23T05:12:23;34.67;;;17.43;;
71814;SDS011;59659;41.520;23.794;2023-03-23T05:13:34;31.63;;;16.00;;
71814;SDS011;59659;41.520;23.794;2023-03-23T05:14:44;111.35;;;44.97;;
71814;SDS011;59659;41.520;23.794;2023-03-23T05:15:55;76.77;;;33.43;;
71814;SDS011;59659;41.520;23.794;2023-03-23T05:17:05;116.97;;;47.73;;
71814;SDS011;59659;41.520;23.794;2023-03-23T05:18:17;132.75;;;48.75;;
71814;SDS011;59659;41.520;23.794;2023-03-23T05:19:27;110.43;;;45.37;;
71814;SDS011;59659;41.520;23.794;2023-03-23T05:20:38;115.80;;;45.10;;
71814;SDS011;59659;41.520;23.794;2023-03-23T05:21:49;99.20;;;42.90;;
71814;SDS011;59659;41.520;23.794;2023-03-23T05:22:59;107.17;;;44.43;;
71814;SDS011;59659;41.520;23.794;2023-03-23T05:24:10;92.60;;;41.00;;
71814;SDS011;59659;41.520;23.794;2023-03-23T05:25:20;48.77;;;23.40;;
71814;SDS011;59659;41.520;23.794;2023-03-23T05:26:31;46.87;;;22.10;;
71814;SDS011;59659;41.520;23.794;2023-03-23T05:27:42;46.35;;;22.75;;
71814;SDS011;59659;41.520;23.794;2023-03-23T05:28:53;62.97;;;26.43;;
71814;SDS011;59659;41.520;23.794;2023-03-23T05:30:04;41.40;;;20.33;;
71814;SDS011;59659;41.520;23.794;2023-03-23T05:31:15;43.70;;;19.25;;
71814;SDS011;59659;41.520;23.794;2023-03-23T05:32:27;35.92;;;16.67;;
71814;SDS011;59659;41.520;23.794;2023-03-23T05:33:39;42.42;;;20.27;;
71814;SDS011;59659;41.520;23.794;2023-03-23T05:34:49;50.23;;;22.00;;
71814;SDS011;59659;41.520;23.794;2023-03-23T05:35:59;36.40;;;20.13;;
71814;SDS011;59659;41.520;23.794;2023-03-23T05:37:10;56.23;;;29.37;;
71814;SDS011;59659;41.520;23.794;2023-03-23T05:38:22;57.10;;;29.98;;
71814;SDS011;59659;41.520;23.794;2023-03-23T05:39:33;50.17;;;27.10;;
71814;SDS011;59659;41.520;23.794;2023-03-23T05:40:44;47.00;;;25.48;;
71814;SDS011;59659;41.520;23.794;2023-03-23T05:41:55;50.70;;;23.93;;
71814;SDS011;59659;41.520;23.794;2023-03-23T05:43:05;43.33;;;22.73;;
71814;SDS011;59659;41.520;23.794;2023-03-23T05:44:15;39.20;;;18.47;;
71814;SDS011;59659;41.520;23.794;2023-03-23T05:45:26;32.87;;;15.80;;
71814;SDS011;59659;41.520;23.794;2023-03-23T05:46:37;38.70;;;16.07;;
71814;SDS011;59659;41.520;23.794;2023-03-23T05:47:48;31.35;;;13.98;;
71814;SDS011;59659;41.520;23.794;2023-03-23T05:48:58;34.90;;;17.60;;
71814;SDS011;59659;41.520;23.794;2023-03-23T05:50:10;28.33;;;11.40;;
71814;SDS011;59659;41.520;23.794;2023-03-23T05:51:20;23.53;;;11.93;;
71814;SDS011;59659;41.520;23.794;2023-03-23T05:52:31;27.87;;;10.07;;
71814;SDS011;59659;41.520;23.794;2023-03-23T05:53:42;13.98;;;6.38;;
71814;SDS011;59659;41.520;23.794;2023-03-23T05:54:53;7.40;;;5.23;;
71814;SDS011;59659;41.520;23.794;2023-03-23T05:56:03;5.50;;;4.27;;
71814;SDS011;59659;41.520;23.794;2023-03-23T05:57:14;6.00;;;3.07;;
71814;SDS011;59659;41.520;23.794;2023-03-23T05:58:24;6.13;;;3.77;;
71814;SDS011;59659;41.520;23.794;2023-03-23T05:59:35;6.83;;;4.13;;
71814;SDS011;59659;41.520;23.794;2023-03-23T06:00:45;10.77;;;4.80;;
71814;SDS011;59659;41.520;23.794;2023-03-23T06:01:56;9.52;;;4.45;;
71814;SDS011;59659;41.520;23.794;2023-03-23T06:03:07;9.53;;;4.60;;
71814;SDS011;59659;41.520;23.794;2023-03-23T06:04:17;7.57;;;4.93;;
71814;SDS011;59659;41.520;23.794;2023-03-23T06:05:28;6.73;;;4.23;;
71814;SDS011;59659;41.520;23.794;2023-03-23T06:06:39;17.98;;;9.68;;
71814;SDS011;59659;41.520;23.794;2023-03-23T06:07:51;20.42;;;11.75;;
71814;SDS011;59659;41.520;23.794;2023-03-23T06:09:02;11.52;;;7.60;;
71814;SDS011;59659;41.520;23.794;2023-03-23T06:10:13;13.67;;;6.10;;
71814;SDS011;59659;41.520;23.794;2023-03-23T06:11:23;10.33;;;6.33;;
71814;SDS011;59659;41.520;23.794;2023-03-23T06:12:35;10.52;;;5.43;;
71814;SDS011;59659;41.520;23.794;2023-03-23T06:13:45;8.97;;;4.20;;
71814;SDS011;59659;41.520;23.794;2023-03-23T06:14:55;12.33;;;6.57;;
71814;SDS011;59659;41.520;23.794;2023-03-23T06:16:06;17.77;;;7.67;;
71814;SDS011;59659;41.520;23.794;2023-03-23T06:17:16;13.57;;;6.43;;
71814;SDS011;59659;41.520;23.794;2023-03-23T06:18:27;22.83;;;11.20;;
71814;SDS011;59659;41.520;23.794;2023-03-23T06:19:39;16.33;;;9.43;;
71814;SDS011;59659;41.520;23.794;2023-03-23T06:20:49;13.07;;;6.83;;
71814;SDS011;59659;41.520;23.794;2023-03-23T06:22:00;16.52;;;9.57;;
71814;SDS011;59659;41.520;23.794;2023-03-23T06:23:12;12.93;;;7.15;;
71814;SDS011;59659;41.520;23.794;2023-03-23T06:24:22;9.07;;;5.13;;
71814;SDS011;59659;41.520;23.794;2023-03-23T06:25:33;10.93;;;5.60;;
71814;SDS011;59659;41.520;23.794;2023-03-23T06:26:43;15.80;;;6.83;;
71814;SDS011;59659;41.520;23.794;2023-03-23T06:27:54;7.95;;;3.63;;
71814;SDS011;59659;41.520;23.794;2023-03-23T06:29:05;14.40;;;6.23;;
71814;SDS011;59659;41.520;23.794;2023-03-23T06:30:21;12.25;;;7.88;;
71814;SDS011;59659;41.520;23.794;2023-03-23T06:31:31;6.43;;;4.00;;
71814;SDS011;59659;41.520;23.794;2023-03-23T06:32:43;13.02;;;5.50;;
71814;SDS011;59659;41.520;23.794;2023-03-23T06:33:56;10.43;;;4.97;;
71814;SDS011;59659;41.520;23.794;2023-03-23T06:35:07;13.03;;;4.93;;
71814;SDS011;59659;41.520;23.794;2023-03-23T06:36:19;8.27;;;4.93;;
71814;SDS011;59659;41.520;23.794;2023-03-23T06:37:30;9.20;;;4.83;;
71814;SDS011;59659;41.520;23.794;2023-03-23T06:38:40;11.20;;;4.67;;
71814;SDS011;59659;41.520;23.794;2023-03-23T06:39:51;11.90;;;6.50;;
71814;SDS011;59659;41.520;23.794;2023-03-23T06:41:01;9.87;;;5.40;;
71814;SDS011;59659;41.520;23.794;2023-03-23T06:42:12;11.30;;;6.13;;
71814;SDS011;59659;41.520;23.794;2023-03-23T06:43:23;12.23;;;5.33;;
71814;SDS011;59659;41.520;23.794;2023-03-23T06:44:33;7.22;;;4.70;;
71814;SDS011;59659;41.520;23.794;2023-03-23T06:45:44;9.37;;;4.00;;
71814;SDS011;59659;41.520;23.794;2023-03-23T06:46:54;4.37;;;3.23;;
71814;SDS011;59659;41.520;23.794;2023-03-23T06:48:05;6.97;;;4.03;;
71814;SDS011;59659;41.520;23.794;2023-03-23T06:49:15;8.40;;;3.43;;
71814;SDS011;59659;41.520;23.794;2023-03-23T06:50:28;7.63;;;4.00;;
71814;SDS011;59659;41.520;23.794;2023-03-23T06:51:39;7.53;;;3.65;;
71814;SDS011;59659;41.520;23.794;2023-03-23T06:52:49;7.20;;;3.97;;
71814;SDS011;59659;41.520;23.794;2023-03-23T06:54:01;12.60;;;5.38;;
71814;SDS011;59659;41.520;23.794;2023-03-23T06:55:11;11.43;;;5.90;;
71814;SDS011;59659;41.520;23.794;2023-03-23T06:56:23;13.00;;;5.97;;
71814;SDS011;59659;41.520;23.794;2023-03-23T06:57:33;8.50;;;4.10;;
71814;SDS011;59659;41.520;23.794;2023-03-23T06:58:43;10.17;;;4.77;;
71814;SDS011;59659;41.520;23.794;2023-03-23T06:59:55;9.90;;;4.47;;
71814;SDS011;59659;41.520;23.794;2023-03-23T07:01:06;23.03;;;7.97;;
71814;SDS011;59659;41.520;23.794;2023-03-23T07:02:17;25.70;;;8.43;;
71814;SDS011;59659;41.520;23.794;2023-03-23T07:03:27;9.63;;;5.87;;
71814;SDS011;59659;41.520;23.794;2023-03-23T07:04:38;9.33;;;4.37;;
71814;SDS011;59659;41.520;23.794;2023-03-23T07:05:48;8.80;;;4.47;;
71814;SDS011;59659;41.520;23.794;2023-03-23T07:06:59;12.90;;;6.20;;
71814;SDS011;59659;41.520;23.794;2023-03-23T07:08:09;18.97;;;7.03;;
71814;SDS011;59659;41.520;23.794;2023-03-23T07:09:19;15.03;;;6.20;;
71814;SDS011;59659;41.520;23.794;2023-03-23T07:10:30;9.37;;;5.57;;
71814;SDS011;59659;41.520;23.794;2023-03-23T07:11:41;8.02;;;4.80;;
71814;SDS011;59659;41.520;23.794;2023-03-23T07:12:52;9.97;;;4.60;;
71814;SDS011;59659;41.520;23.794;2023-03-23T07:14:02;7.83;;;4.37;;
71814;SDS011;59659;41.520;23.794;2023-03-23T07:15:13;7.83;;;4.40;;
71814;SDS011;59659;41.520;23.794;2023-03-23T07:16:23;7.63;;;3.90;;
71814;SDS011;59659;41.520;23.794;2023-03-23T07:17:33;7.27;;;3.93;;
71814;SDS011;59659;41.520;23.794;2023-03-23T07:18:44;8.27;;;4.83;;
71814;SDS011;59659;41.520;23.794;2023-03-23T07:19:54;8.07;;;4.43;;
71814;SDS011;59659;41.520;23.794;2023-03-23T07:21:05;8.20;;;4.07;;
71814;SDS011;59659;41.520;23.794;2023-03-23T07:22:16;8.03;;;4.57;;
71814;SDS011;59659;41.520;23.794;2023-03-23T07:23:26;9.13;;;4.20;;
71814;SDS011;59659;41.520;23.794;2023-03-23T07:24:38;7.80;;;4.70;;
71814;SDS011;59659;41.520;23.794;2023-03-23T07:25:49;9.83;;;3.90;;
71814;SDS011;59659;41.520;23.794;2023-03-23T07:26:59;8.63;;;3.47;;
71814;SDS011;59659;41.520;23.794;2023-03-23T07:28:09;5.40;;;3.43;;